Time;durP1;ratioP1;P1;durP2;ratioP2;P2;SDS_P1;SDS_P2;PMS_P1;PMS_P2;Temp;Humidity;BMP_temperature;BMP_pressure;BME280_temperature;BME280_humidity;BME280_pressure;Samples;Min_cycle;Max_cycle;Signal;HPM_P1;HPM_P2
2021/05/11 00:00:06;;;;;;;8.32;1.50;;;;;;;11.80;71.91;100959.72;5073204;28;20451;-45
2021/05/11 00:02:33;;;;;;;3.72;0.95;;;;;;;11.78;72.08;100962.03;5073309;28;20481;-43
2021/05/11 00:05:01;;;;;;;4.82;1.30;;;;;;;11.77;72.10;100963.16;5072544;28;20056;-44
2021/05/11 00:07:28;;;;;;;7.18;1.48;;;;;;;11.79;72.29;100968.44;5073303;28;20574;-45
2021/05/11 00:09:55;;;;;;;5.40;1.48;;;;;;;11.79;72.31;100977.63;5072984;28;20056;-43
2021/05/11 00:12:22;;;;;;;7.65;1.55;;;;;;;11.78;72.39;100969.59;5072778;28;20106;-40
2021/05/11 00:14:49;;;;;;;4.82;1.10;;;;;;;11.78;72.43;100969.59;5073124;28;20064;-44
2021/05/11 00:17:15;;;;;;;7.32;1.27;;;;;;;11.78;72.50;100969.59;5054597;28;20413;-44
2021/05/11 00:19:42;;;;;;;6.13;1.52;;;;;;;11.78;72.61;100964.81;5073432;28;20476;-46
2021/05/11 00:22:10;;;;;;;6.40;1.25;;;;;;;11.77;72.76;100965.97;5072893;28;20083;-44
2021/05/11 00:24:37;;;;;;;5.90;1.20;;;;;;;11.76;72.67;100957.84;5072832;28;20653;-44
2021/05/11 00:27:04;;;;;;;4.20;1.05;;;;;;;11.75;72.95;100968.19;5072767;28;20051;-44
2021/05/11 00:29:31;;;;;;;4.90;1.38;;;;;;;11.72;72.99;100964.03;5072975;28;20053;-44
2021/05/11 00:31:58;;;;;;;4.32;1.30;;;;;;;11.70;73.07;100959.88;5071991;28;20079;-45
2021/05/11 00:34:25;;;;;;;6.00;1.55;;;;;;;11.68;73.31;100956.56;5073130;28;20497;-44
2021/05/11 00:36:52;;;;;;;6.05;1.50;;;;;;;11.66;73.27;100956.84;5072631;28;20102;-44
2021/05/11 00:39:20;;;;;;;4.35;1.42;;;;;;;11.65;73.35;100954.38;5072173;28;20064;-45
2021/05/11 00:41:47;;;;;;;5.40;1.42;;;;;;;11.63;73.48;100953.84;5072492;28;20053;-45
2021/05/11 00:44:25;;;;;;;8.63;1.77;;;;;;;11.59;73.55;100953.59;5072395;28;20048;-43
2021/05/11 00:46:57;;;;;;;4.75;1.50;;;;;;;11.56;73.62;100951.44;5072193;28;20048;-48
2021/05/11 00:49:25;;;;;;;4.13;1.05;;;;;;;11.57;73.69;100949.47;5072526;28;20076;-43
2021/05/11 00:51:52;;;;;;;4.68;1.08;;;;;;;11.58;73.90;100951.16;5071883;28;20052;-44
2021/05/11 00:54:21;;;;;;;5.45;1.40;;;;;;;11.58;73.89;100959.53;5072162;28;20105;-41
2021/05/11 00:56:49;;;;;;;3.22;0.93;;;;;;;11.57;74.18;100960.66;5072096;28;20052;-44
2021/05/11 00:59:20;;;;;;;4.10;1.23;;;;;;;11.56;74.15;100959.00;5061780;28;20043;-43
2021/05/11 01:01:47;;;;;;;6.88;1.15;;;;;;;11.55;74.38;100957.34;5071689;28;20097;-45
2021/05/11 01:04:14;;;;;;;3.72;1.15;;;;;;;11.54;74.81;100962.09;5072160;28;20055;-42
2021/05/11 01:06:41;;;;;;;8.60;1.20;;;;;;;11.52;74.80;100964.34;5071926;28;20599;-42
2021/05/11 01:09:09;;;;;;;6.10;1.90;;;;;;;11.51;75.20;100961.88;5072143;28;20040;-42
2021/05/11 01:11:37;;;;;;;5.68;1.48;;;;;;;11.47;75.38;100958.84;5072566;28;20040;-45
2021/05/11 01:14:05;;;;;;;3.85;1.02;;;;;;;11.46;75.60;100956.34;5071439;28;20048;-44
2021/05/11 01:16:33;;;;;;;4.05;1.05;;;;;;;11.45;75.82;100960.28;5072300;28;20052;-41
2021/05/11 01:19:05;;;;;;;5.65;1.15;;;;;;;11.44;75.90;100951.06;5071869;28;20052;-43
2021/05/11 01:21:40;;;;;;;4.72;1.35;;;;;;;11.42;75.87;100949.69;5071482;28;20056;-45
2021/05/11 01:24:10;;;;;;;4.88;1.00;;;;;;;11.38;75.92;100957.88;5071561;28;20048;-45
2021/05/11 01:26:45;;;;;;;4.30;1.10;;;;;;;11.37;75.92;100951.47;5072182;28;20098;-42
2021/05/11 01:32:18;;;;;;;5.60;1.40;;;;;;;11.33;76.37;100955.97;5051176;28;20057;-45
2021/05/11 01:48:35;;;;;;;4.25;1.20;;;;;;;11.18;77.69;100945.03;5071416;28;20090;-42
2021/05/11 01:51:18;;;;;;;8.35;1.73;;;;;;;11.17;77.59;100946.16;5060189;28;20040;-46
2021/05/11 01:56:54;;;;;;;4.25;1.15;;;;;;;11.09;77.96;100951.59;5033399;28;20056;-46
2021/05/11 02:24:12;;;;;;;8.75;2.15;;;;;;;10.71;79.40;100937.56;5070331;28;20103;-43
2021/05/11 02:26:39;;;;;;;5.03;1.40;;;;;;;10.69;79.44;100932.28;5071344;28;20452;-49
2021/05/11 02:29:07;;;;;;;4.82;1.55;;;;;;;10.69;79.65;100931.44;5071297;28;20057;-46
2021/05/11 02:31:34;;;;;;;4.50;1.45;;;;;;;10.67;79.75;100939.28;5070035;28;20049;-44
2021/05/11 02:34:01;;;;;;;4.28;1.50;;;;;;;10.64;79.94;100946.28;5070969;28;20493;-45
2021/05/11 02:36:27;;;;;;;6.15;1.88;;;;;;;10.60;79.89;100945.22;5070636;28;20098;-47
2021/05/11 02:38:54;;;;;;;5.45;1.83;;;;;;;10.57;79.98;100947.78;5070140;28;20498;-44
2021/05/11 02:41:21;;;;;;;5.35;2.00;;;;;;;10.53;80.18;100947.56;5070925;28;20048;-43
2021/05/11 02:43:48;;;;;;;6.05;2.10;;;;;;;10.48;80.28;100944.81;5071119;28;20048;-44
2021/05/11 02:46:16;;;;;;;4.80;1.70;;;;;;;10.45;80.36;100939.81;5070254;28;20080;-46
2021/05/11 02:48:43;;;;;;;5.70;2.47;;;;;;;10.41;80.40;100940.69;5070873;28;20110;-49
2021/05/11 02:51:10;;;;;;;6.68;2.40;;;;;;;10.37;80.52;100943.28;5070454;28;20048;-47
2021/05/11 02:53:36;;;;;;;6.68;2.40;;;;;;;10.34;80.79;100927.13;5070250;28;20056;-44
2021/05/11 02:56:04;;;;;;;6.78;2.80;;;;;;;10.31;80.91;100928.56;5070575;28;20090;-44
2021/05/11 02:58:33;;;;;;;6.72;2.60;;;;;;;10.28;80.89;100937.50;5070893;28;20049;-40
2021/05/11 03:01:00;;;;;;;7.25;2.70;;;;;;;10.23;81.09;100926.41;5069992;28;20051;-46
2021/05/11 03:03:28;;;;;;;3.63;1.40;;;;;;;10.19;81.06;100930.09;5070756;28;20131;-47
2021/05/11 03:05:56;;;;;;;5.18;2.00;;;;;;;10.16;81.35;100927.84;5070548;28;20047;-49
2021/05/11 03:08:23;;;;;;;4.32;1.70;;;;;;;10.12;81.46;100930.41;5070102;28;20052;-43
2021/05/11 03:10:50;;;;;;;4.88;1.83;;;;;;;10.09;81.55;100935.72;5070664;28;20048;-46
2021/05/11 03:13:17;;;;;;;7.47;2.70;;;;;;;10.06;81.58;100941.88;5070324;28;20040;-46
2021/05/11 03:15:44;;;;;;;9.68;2.67;;;;;;;10.00;81.56;100933.56;5074435;28;20438;-44
2021/05/11 03:18:11;;;;;;;6.07;2.10;;;;;;;9.95;81.76;100924.44;5073698;28;20044;-45
2021/05/11 03:20:39;;;;;;;4.85;1.98;;;;;;;9.90;81.89;100932.84;5073609;28;20110;-46
2021/05/11 03:23:06;;;;;;;5.15;2.42;;;;;;;9.84;81.94;100929.25;5074020;28;20048;-43
2021/05/11 03:25:33;;;;;;;8.40;3.15;;;;;;;9.79;82.04;100929.31;5074161;28;20044;-44
2021/05/11 03:28:00;;;;;;;6.55;2.85;;;;;;;9.74;82.09;100932.16;5073589;28;20049;-45
2021/05/11 03:30:27;;;;;;;5.97;3.00;;;;;;;9.69;82.22;100937.75;5074045;28;20045;-44
2021/05/11 03:32:56;;;;;;;5.90;2.53;;;;;;;9.65;82.34;100939.47;5073773;28;20048;-42
2021/05/11 03:35:23;;;;;;;7.22;3.10;;;;;;;9.60;82.36;100934.75;5073674;28;20056;-41
2021/05/11 03:37:52;;;;;;;7.13;3.22;;;;;;;9.57;82.50;100928.97;5073516;28;20570;-41
2021/05/11 03:40:19;;;;;;;8.57;3.28;;;;;;;9.54;82.25;100929.53;5073611;28;20067;-42
2021/05/11 03:42:52;;;;;;;8.27;3.25;;;;;;;9.50;82.38;100925.66;5072936;28;20048;-47
2021/05/11 03:45:20;;;;;;;7.60;3.10;;;;;;;9.44;82.46;100941.56;5062327;28;20053;-45
2021/05/11 03:47:48;;;;;;;9.25;3.40;;;;;;;9.40;82.65;100934.91;5072963;28;20037;-46
2021/05/11 03:50:17;;;;;;;9.05;3.80;;;;;;;9.37;82.41;100926.34;5072742;28;20048;-42
2021/05/11 03:52:44;;;;;;;8.20;3.78;;;;;;;9.33;82.69;100924.13;5072836;28;20041;-42
2021/05/11 03:55:13;;;;;;;9.95;4.10;;;;;;;9.30;82.90;100935.00;5073015;28;20094;-43
2021/05/11 03:57:41;;;;;;;8.52;3.90;;;;;;;9.24;82.51;100934.19;5072339;28;20041;-43
2021/05/11 04:00:09;;;;;;;5.65;2.88;;;;;;;9.20;82.92;100938.66;5072659;28;20414;-48
2021/05/11 04:02:37;;;;;;;6.78;3.13;;;;;;;9.20;82.73;100943.41;5072714;28;20052;-48
2021/05/11 04:05:08;;;;;;;8.68;3.53;;;;;;;9.17;82.84;100942.06;5073332;28;20055;-44
2021/05/11 04:07:37;;;;;;;7.32;4.13;;;;;;;9.13;82.79;100935.41;5073107;28;20045;-44
2021/05/11 04:10:11;;;;;;;10.30;4.03;;;;;;;9.12;82.81;100944.88;5072541;28;20106;-46
2021/05/11 04:12:59;;;;;;;8.40;3.40;;;;;;;9.09;83.01;100939.88;5073125;28;20044;-44
2021/05/11 04:18:12;;;;;;;6.28;3.17;;;;;;;9.10;83.44;100935.13;5071034;28;20052;-45
2021/05/11 04:20:39;;;;;;;11.32;6.00;;;;;;;9.11;83.40;100936.81;5072844;28;20052;-45
2021/05/11 04:23:07;;;;;;;9.10;3.70;;;;;;;9.11;83.33;100945.16;5072694;28;20059;-44
2021/05/11 04:25:34;;;;;;;9.57;3.45;;;;;;;9.11;83.66;100953.50;5071899;28;20090;-47
2021/05/11 04:28:02;;;;;;;5.47;2.60;;;;;;;9.15;83.86;100955.44;5073008;28;20093;-44
2021/05/11 04:30:30;;;;;;;5.90;2.22;;;;;;;9.17;83.96;100953.19;5072098;28;20040;-42
2021/05/11 04:32:57;;;;;;;3.30;1.80;;;;;;;9.21;83.91;100970.13;5072883;28;20094;-51
2021/05/11 04:35:25;;;;;;;6.55;2.80;;;;;;;9.23;83.96;100974.28;5072567;28;20099;-46
2021/05/11 04:37:52;;;;;;;7.40;3.10;;;;;;;9.25;84.00;100972.06;5072544;28;20064;-45
2021/05/11 04:40:21;;;;;;;6.53;3.42;;;;;;;9.28;84.25;100970.66;5072312;28;20567;-41
2021/05/11 04:42:48;;;;;;;9.10;3.55;;;;;;;9.30;84.09;100985.13;5073027;28;20074;-49
2021/05/11 04:45:22;;;;;;;6.40;2.85;;;;;;;9.33;84.35;100988.16;5072127;28;20048;-47
2021/05/11 04:47:50;;;;;;;6.13;2.35;;;;;;;9.38;84.29;100984.53;5072914;28;20055;-45
2021/05/11 04:50:20;;;;;;;6.80;2.80;;;;;;;9.45;84.36;100984.19;5072094;28;20143;-47
2021/05/11 04:52:48;;;;;;;7.00;3.30;;;;;;;9.50;84.46;100979.44;5072269;28;20063;-46
2021/05/11 04:55:17;;;;;;;7.25;3.33;;;;;;;9.57;84.33;100987.47;5072328;28;20486;-44
2021/05/11 04:57:45;;;;;;;6.53;3.85;;;;;;;9.63;84.79;100986.28;5072486;28;20055;-45
2021/05/11 05:00:14;;;;;;;7.60;2.95;;;;;;;9.68;84.83;100986.25;5071729;28;20067;-45
2021/05/11 05:02:49;;;;;;;8.70;3.13;;;;;;;9.74;84.86;100984.28;5072443;28;20045;-44
2021/05/11 05:05:17;;;;;;;6.63;3.25;;;;;;;9.79;84.88;100984.25;5072229;28;20513;-43
2021/05/11 05:07:44;;;;;;;9.23;4.03;;;;;;;9.85;84.81;100981.09;5071755;28;20044;-41
2021/05/11 05:10:12;;;;;;;9.07;3.75;;;;;;;9.91;84.97;100979.09;5071964;28;20029;-47
2021/05/11 05:12:45;;;;;;;4.90;2.30;;;;;;;9.94;85.02;100979.34;5071621;28;20049;-43
2021/05/11 05:15:13;;;;;;;5.43;2.70;;;;;;;10.01;85.07;100979.84;5071702;28;20490;-47
2021/05/11 05:17:40;;;;;;;5.18;2.50;;;;;;;10.06;85.16;100970.59;5071905;28;20109;-46
2021/05/11 05:20:11;;;;;;;7.63;3.50;;;;;;;10.13;85.16;100976.69;5071559;28;20041;-45
2021/05/11 05:22:38;;;;;;;7.40;2.30;;;;;;;10.19;85.50;100981.09;5068592;28;20049;-40
2021/05/11 05:25:11;;;;;;;6.60;3.03;;;;;;;10.27;85.52;100990.78;5071964;28;20421;-43
2021/05/11 05:27:43;;;;;;;10.88;3.85;;;;;;;10.35;85.62;100987.38;5071133;28;20165;-47
2021/05/11 05:30:12;;;;;;;7.32;3.22;;;;;;;10.42;85.64;100990.63;5072162;28;20550;-41
2021/05/11 05:32:39;;;;;;;6.60;3.10;;;;;;;10.51;85.49;100988.03;5071651;28;20051;-43
2021/05/11 05:35:07;;;;;;;8.55;3.42;;;;;;;10.57;85.64;100992.44;5071545;28;20048;-46
2021/05/11 05:37:35;;;;;;;9.48;3.17;;;;;;;10.66;85.59;100997.06;5070774;28;20052;-43
2021/05/11 05:40:06;;;;;;;8.35;3.53;;;;;;;10.74;85.74;100990.00;5068631;28;20060;-45
2021/05/11 05:42:34;;;;;;;5.65;2.22;;;;;;;10.81;85.53;101001.63;5070785;28;20049;-43
2021/05/11 05:45:01;;;;;;;7.68;2.13;;;;;;;10.90;85.41;101001.81;5071511;28;20044;-43
2021/05/11 05:47:28;;;;;;;3.75;1.67;;;;;;;10.97;85.40;100997.53;5071275;28;20410;-43
2021/05/11 05:50:01;;;;;;;6.63;1.95;;;;;;;11.06;85.36;101000.47;5070980;28;20059;-47
2021/05/11 05:52:35;;;;;;;5.25;2.00;;;;;;;11.12;85.36;101004.88;5071285;28;20048;-45
2021/05/11 05:55:04;;;;;;;5.38;2.20;;;;;;;11.21;85.21;100997.47;5070876;28;20072;-43
2021/05/11 05:57:31;;;;;;;4.05;1.80;;;;;;;11.31;85.23;101005.75;5071174;28;20110;-45
2021/05/11 05:59:58;;;;;;;4.40;1.52;;;;;;;11.39;85.34;101007.84;5057584;28;20451;-48
2021/05/11 06:02:27;;;;;;;3.65;1.60;;;;;;;11.50;85.09;101004.91;5069223;28;20047;-46
2021/05/11 06:04:54;;;;;;;4.90;1.75;;;;;;;11.59;85.03;101011.50;5060343;28;20505;-45
2021/05/11 06:07:21;;;;;;;5.07;1.58;;;;;;;11.69;85.10;101009.38;5070792;28;20045;-43
2021/05/11 06:09:49;;;;;;;8.20;2.33;;;;;;;11.80;85.17;101010.06;5070789;28;20465;-43
2021/05/11 06:12:21;;;;;;;9.55;3.13;;;;;;;11.91;85.10;101017.16;5070854;28;20044;-41
2021/05/11 06:15:02;;;;;;;4.85;2.50;;;;;;;12.04;85.05;101013.59;5071129;28;20056;-40
2021/05/11 06:17:29;;;;;;;5.07;2.60;;;;;;;12.18;85.17;100996.03;5070359;28;20045;-43
2021/05/11 06:19:57;;;;;;;8.13;3.20;;;;;;;12.38;85.14;101001.25;5071146;28;20055;-46
2021/05/11 06:22:24;;;;;;;8.50;3.40;;;;;;;12.63;85.08;100988.72;5070882;28;20040;-42
2021/05/11 06:24:51;;;;;;;10.07;3.90;;;;;;;12.92;84.52;100989.25;5070196;28;20106;-46
2021/05/11 06:27:20;;;;;;;9.10;3.13;;;;;;;13.28;84.05;100980.13;5070652;28;20225;-41
2021/05/11 06:29:49;;;;;;;10.02;2.67;;;;;;;13.68;82.92;100984.78;5070494;28;20063;-44
2021/05/11 06:32:20;;;;;;;;;;;;;;;14.02;81.69;100987.00;5070860;28;20045;-43
2021/05/11 06:34:53;;;;;;;7.15;2.45;;;;;;;14.35;80.43;100993.19;5071059;28;20007;-43
2021/05/11 06:37:20;;;;;;;7.47;2.00;;;;;;;14.75;79.59;100993.25;5070651;28;20044;-45
2021/05/11 06:39:50;;;;;;;8.15;2.08;;;;;;;15.10;77.93;100988.59;5070445;28;20053;-43
2021/05/11 06:42:20;;;;;;;7.63;2.13;;;;;;;15.38;76.42;100992.78;5070778;28;20060;-43
2021/05/11 06:45:03;;;;;;;5.30;1.70;;;;;;;15.60;74.73;100985.38;5069607;28;20098;-43
2021/05/11 06:50:31;;;;;;;4.78;1.10;;;;;;;16.06;71.71;100982.72;5074287;28;20044;-49
2021/05/11 06:53:11;;;;;;;5.90;1.45;;;;;;;16.25;70.38;100979.53;5074100;28;20489;-46
2021/05/11 06:55:41;;;;;;;5.40;1.38;;;;;;;16.38;68.85;100978.53;5074493;28;20048;-52
2021/05/11 06:58:09;;;;;;;4.80;1.30;;;;;;;16.52;67.37;100978.31;5074364;28;20543;-44
2021/05/11 07:00:42;;;;;;;7.47;1.38;;;;;;;16.59;66.38;100972.97;5074527;28;20044;-49
2021/05/11 07:03:09;;;;;;;7.78;1.60;;;;;;;16.69;65.29;100967.00;5073493;28;20144;-48
2021/05/11 07:05:37;;;;;;;4.93;1.10;;;;;;;16.79;64.83;100963.81;5073581;28;20437;-45
2021/05/11 07:08:09;;;;;;;4.90;1.13;;;;;;;16.97;63.88;100970.22;5074669;28;20056;-44
2021/05/11 07:10:37;;;;;;;6.68;1.35;;;;;;;17.08;63.34;100979.09;5074456;28;20098;-43
2021/05/11 07:13:12;;;;;;;5.05;1.30;;;;;;;17.18;62.20;100962.63;5074031;28;20505;-47
2021/05/11 07:15:42;;;;;;;4.93;1.30;;;;;;;17.29;61.46;100971.50;5074174;28;20075;-42
2021/05/11 07:18:12;;;;;;;4.53;0.98;;;;;;;17.39;60.95;100970.25;5056318;28;20798;-44
2021/05/11 07:20:41;;;;;;;5.32;1.00;;;;;;;17.54;60.44;100976.16;5073738;28;20502;-47
2021/05/11 07:23:09;;;;;;;5.25;1.10;;;;;;;17.67;59.32;100981.88;5074185;28;20106;-43
2021/05/11 07:25:42;;;;;;;5.07;0.98;;;;;;;17.76;58.72;100982.66;5073908;28;20078;-44
2021/05/11 07:28:37;;;;;;;6.22;1.13;;;;;;;17.86;58.56;100977.41;5073801;28;20048;-45
2021/05/11 07:31:07;;;;;;;4.05;1.27;;;;;;;17.97;58.04;100977.81;5073996;28;20059;-46
2021/05/11 07:33:36;;;;;;;5.55;1.10;;;;;;;18.08;57.74;100975.38;5073272;28;20464;-44
2021/05/11 07:36:05;;;;;;;5.45;1.00;;;;;;;18.21;56.91;100983.53;5073888;28;20466;-44
2021/05/11 07:38:33;;;;;;;3.97;1.20;;;;;;;18.29;55.30;100978.97;5073858;28;20055;-43
2021/05/11 07:41:01;;;;;;;4.05;1.17;;;;;;;18.34;54.92;100983.59;5072873;28;20068;-44
2021/05/11 07:43:30;;;;;;;4.22;1.20;;;;;;;18.45;54.82;100981.97;5073852;28;20389;-44
2021/05/11 07:51:56;;;;;;;5.78;1.30;;;;;;;18.67;53.12;100984.41;5073790;28;20053;-47
2021/05/11 08:14:31;;;;;;;8.52;2.28;;;;;;;18.89;54.13;100975.47;5073300;28;20048;-44
2021/05/11 08:17:00;;;;;;;5.97;1.88;;;;;;;18.78;54.77;100979.13;5072805;28;20049;-44
2021/05/11 08:22:34;;;;;;;6.28;1.85;;;;;;;18.73;55.87;100965.22;5059975;28;20095;-45
2021/05/11 08:27:54;;;;;;;6.55;2.13;;;;;;;19.00;55.86;100961.66;5072891;28;20049;-46
2021/05/11 08:30:22;;;;;;;6.53;2.20;;;;;;;19.21;55.30;100955.88;5072553;28;20048;-43
2021/05/11 08:32:49;;;;;;;8.48;2.95;;;;;;;19.19;54.73;100959.06;5072751;28;20040;-49
2021/05/11 08:35:17;;;;;;;6.90;2.65;;;;;;;19.08;54.87;100971.22;5072636;28;20052;-42
2021/05/11 08:37:45;;;;;;;9.57;3.10;;;;;;;19.12;55.24;100958.84;5072231;28;20114;-44
2021/05/11 08:40:13;;;;;;;7.88;3.22;;;;;;;19.28;54.85;100954.13;5072585;28;20052;-42
2021/05/11 08:42:41;;;;;;;10.15;3.03;;;;;;;19.51;54.92;100951.63;5072367;28;20158;-42
2021/05/11 08:45:10;;;;;;;6.13;2.58;;;;;;;19.85;54.76;100946.56;5072136;28;20059;-44
2021/05/11 08:47:49;;;;;;;6.70;2.95;;;;;;;20.03;54.05;100936.56;5072355;28;20475;-44
2021/05/11 08:50:18;;;;;;;8.93;2.95;;;;;;;20.10;54.17;100945.28;5072513;28;20502;-47
2021/05/11 08:53:06;;;;;;;7.72;3.83;;;;;;;20.03;53.96;100939.41;5071859;28;20045;-45
2021/05/11 09:07:37;;;;;;;9.82;4.45;;;;;;;19.12;56.75;100958.84;5052021;28;19975;-49
2021/05/11 09:24:05;;;;;;;9.45;4.97;;;;;;;18.89;58.83;100960.50;5071642;28;20076;-44
2021/05/11 09:26:48;;;;;;;10.18;4.72;;;;;;;19.03;58.79;100974.28;5071380;28;20094;-44
2021/05/11 09:29:30;;;;;;;9.57;4.82;;;;;;;19.03;58.41;100977.09;5071421;28;20098;-44
2021/05/11 09:32:24;;;;;;;9.82;6.05;;;;;;;18.81;58.99;100976.41;5129470;27;20354;-46
2021/05/11 09:54:58;;;;;;;8.80;5.00;;;;;;;19.08;60.06;100989.03;5079844;28;20051;-44
2021/05/11 09:57:36;;;;;;;9.95;4.53;;;;;;;18.91;60.28;100998.56;5129285;28;20100;-46
2021/05/11 10:41:45;;;;;;;10.20;6.40;;;;;;;18.11;64.38;100989.63;5065997;28;20418;-43
2021/05/11 10:47:03;;;;;;;8.30;5.72;;;;;;;18.07;65.05;100987.84;5112660;28;20059;-44
2021/05/11 10:49:32;;;;;;;9.17;5.50;;;;;;;18.04;65.03;100989.34;5114327;28;20039;-43
2021/05/11 10:52:22;;;;;;;11.15;5.88;;;;;;;17.97;65.54;100974.16;5113487;28;20123;-42
2021/05/11 10:54:53;;;;;;;8.30;6.05;;;;;;;17.98;65.65;100978.63;5113907;28;20080;-46
2021/05/11 10:57:30;;;;;;;11.27;6.72;;;;;;;17.95;65.63;100974.50;5113627;28;20052;-46
2021/05/11 11:00:13;;;;;;;9.98;6.43;;;;;;;17.97;65.87;100966.53;5114271;28;20047;-45
2021/05/11 11:02:45;;;;;;;6.45;4.10;;;;;;;18.06;65.89;100969.25;5113835;28;20075;-45
2021/05/11 11:05:35;;;;;;;8.40;4.95;;;;;;;18.15;65.34;100962.34;5113179;28;20118;-47
2021/05/11 11:08:03;;;;;;;9.57;5.85;;;;;;;18.23;65.02;100952.94;5112117;28;20036;-50
2021/05/11 11:10:31;;;;;;;9.55;6.40;;;;;;;18.36;65.25;100947.34;5113437;28;20554;-43
2021/05/11 11:13:02;;;;;;;8.95;4.82;;;;;;;18.41;65.18;100947.91;5112742;28;20051;-43
2021/05/11 11:15:30;;;;;;;6.10;4.93;;;;;;;18.51;65.02;100941.84;5113346;28;20073;-42
2021/05/11 11:17:58;;;;;;;8.25;5.95;;;;;;;18.66;64.70;100943.16;5113350;28;20048;-43
2021/05/11 11:20:33;;;;;;;8.77;5.93;;;;;;;18.83;64.67;100942.13;5113108;28;20055;-43
2021/05/11 11:26:12;;;;;;;10.40;5.90;;;;;;;19.03;64.41;100923.38;5113093;28;20055;-44
2021/05/11 11:28:40;;;;;;;9.82;5.65;;;;;;;19.13;64.17;100922.91;5113527;28;20043;-50
2021/05/11 11:31:21;;;;;;;8.68;5.47;;;;;;;19.13;63.34;100934.22;5113266;28;20575;-44
2021/05/11 11:33:49;;;;;;;9.15;6.18;;;;;;;19.07;63.90;100927.97;5112745;28;20048;-53
2021/05/11 11:36:33;;;;;;;8.57;6.18;;;;;;;19.08;63.62;100928.78;5113465;28;20047;-46
2021/05/11 11:39:04;;;;;;;8.27;6.22;;;;;;;19.09;63.46;100917.13;5113325;28;20044;-50
2021/05/11 11:41:33;;;;;;;6.90;5.30;;;;;;;18.96;63.36;100906.19;5112947;28;20412;-43
2021/05/11 11:44:01;;;;;;;7.47;5.07;;;;;;;18.93;63.37;100897.25;5112583;28;20100;-51
2021/05/11 11:46:29;;;;;;;10.75;6.25;;;;;;;18.95;63.72;100893.22;5112530;28;20086;-45
2021/05/11 11:49:00;;;;;;;9.32;6.78;;;;;;;19.04;63.62;100888.25;5112676;28;20165;-45
2021/05/11 11:51:29;;;;;;;9.77;6.05;;;;;;;19.12;63.43;100884.47;5113152;28;20511;-45
2021/05/11 11:54:15;;;;;;;10.45;6.00;;;;;;;19.21;63.39;100885.16;5111392;28;20055;-43
2021/05/11 11:59:27;;;;;;;10.27;5.72;;;;;;;19.23;63.46;100872.31;5112128;28;20454;-44
2021/05/11 12:01:57;;;;;;;9.18;5.93;;;;;;;19.25;62.82;100883.25;5111698;28;20065;-45
2021/05/11 12:04:30;;;;;;;8.85;5.38;;;;;;;19.18;62.45;100868.91;5107234;28;20044;-45
2021/05/11 12:07:08;;;;;;;7.18;4.63;;;;;;;19.11;62.44;100871.50;5110885;28;20043;-49
2021/05/11 12:09:39;;;;;;;8.55;5.38;;;;;;;19.08;62.70;100878.72;5106269;28;20124;-45
2021/05/11 12:12:10;;;;;;;8.83;5.07;;;;;;;19.12;62.20;100865.50;5107158;28;20051;-41
2021/05/11 12:14:38;;;;;;;6.38;4.13;;;;;;;19.19;61.88;100870.53;5106904;28;20051;-43
2021/05/11 12:17:05;;;;;;;5.82;4.03;;;;;;;19.20;61.36;100872.19;5106813;28;20043;-43
2021/05/11 12:19:33;;;;;;;6.93;4.45;;;;;;;19.21;61.89;100882.31;5109192;28;20043;-46
2021/05/11 12:22:04;;;;;;;8.43;4.40;;;;;;;19.15;61.31;100870.44;5109546;28;20078;-44
2021/05/11 12:24:34;;;;;;;6.38;5.18;;;;;;;19.13;61.95;100881.31;5108926;28;20500;-43
2021/05/11 12:27:14;;;;;;;7.15;4.53;;;;;;;19.14;62.44;100882.13;5110128;28;20608;-43
2021/05/11 12:30:01;;;;;;;9.40;4.97;;;;;;;19.09;62.23;100903.00;5106677;28;20047;-44
2021/05/11 12:32:29;;;;;;;9.00;5.80;;;;;;;18.99;62.61;100908.28;5109600;28;20048;-43
2021/05/11 12:35:08;;;;;;;7.32;4.90;;;;;;;18.81;62.84;100917.00;5110254;28;20044;-43
2021/05/11 12:37:46;;;;;;;8.18;5.10;;;;;;;18.69;62.90;100914.19;5106028;28;20043;-47
2021/05/11 12:40:25;;;;;;;9.52;5.90;;;;;;;18.46;62.98;100910.97;5106875;28;20048;-44
2021/05/11 12:42:55;;;;;;;7.25;4.82;;;;;;;18.32;63.32;100927.44;5109272;28;20096;-43
2021/05/11 12:45:23;;;;;;;7.82;5.18;;;;;;;18.19;64.07;100943.50;5110386;28;20050;-47
2021/05/11 12:47:53;;;;;;;6.75;4.45;;;;;;;18.13;64.28;100946.91;5108545;28;20047;-44
2021/05/11 12:50:25;;;;;;;8.02;5.47;;;;;;;18.06;64.75;100932.53;5109529;28;20088;-46
2021/05/11 12:52:56;;;;;;;7.78;4.93;;;;;;;18.04;64.78;100927.22;5109940;28;20126;-43
2021/05/11 12:55:56;;;;;;;8.18;5.72;;;;;;;18.00;65.45;100925.44;5108425;28;20500;-47
2021/05/11 12:58:37;;;;;;;8.30;5.40;;;;;;;17.97;65.82;100920.50;5107871;28;20039;-44
2021/05/11 13:01:27;;;;;;;8.27;5.35;;;;;;;17.98;66.48;100934.28;5105623;28;20377;-44
2021/05/11 13:04:36;;;;;;;7.93;5.28;;;;;;;17.98;66.75;100936.28;5108134;28;20057;-44
2021/05/11 13:15:37;;;;;;;8.07;6.00;;;;;;;17.78;69.15;100929.50;5110052;28;20135;-47
2021/05/11 13:21:02;;;;;;;8.68;6.20;;;;;;;17.81;69.38;100934.44;5108303;28;20055;-46
2021/05/11 13:26:21;;;;;;;9.18;6.60;;;;;;;17.76;69.95;100929.03;5106061;28;20070;-46
2021/05/11 13:28:53;;;;;;;7.00;5.45;;;;;;;17.80;69.93;100936.41;5107582;28;20051;-44
2021/05/11 13:31:26;;;;;;;;;;;;;;;17.65;69.80;100944.72;5109337;28;20070;-45
2021/05/11 13:33:59;;;;;;;7.05;5.63;;;;;;;17.67;70.15;100948.00;5108709;28;19951;-44
2021/05/11 13:36:26;;;;;;;10.63;7.07;;;;;;;17.73;69.95;100943.81;5109336;28;20089;-42
2021/05/11 13:38:54;;;;;;;10.02;6.80;;;;;;;17.68;69.75;100949.66;5108153;28;20105;-47
2021/05/11 13:41:22;;;;;;;9.30;6.63;;;;;;;17.58;70.01;100943.22;5107392;28;20044;-47
2021/05/11 13:43:50;;;;;;;9.85;7.05;;;;;;;17.58;70.04;100950.06;5108031;28;20051;-45
2021/05/11 13:46:17;;;;;;;9.65;6.40;;;;;;;17.60;70.50;100944.88;5108216;28;20122;-46
2021/05/11 13:48:47;;;;;;;7.65;5.60;;;;;;;17.65;70.41;100934.25;5108297;28;20065;-44
2021/05/11 13:51:16;;;;;;;9.82;6.55;;;;;;;17.69;70.17;100937.22;5107991;28;20454;-44
2021/05/11 13:53:46;;;;;;;10.07;7.18;;;;;;;17.70;70.30;100938.84;5107727;28;20042;-48
2021/05/11 13:56:21;;;;;;;7.85;6.10;;;;;;;17.70;70.46;100931.22;5109420;28;20035;-45
2021/05/11 14:04:21;;;;;;;10.48;7.78;;;;;;;17.74;71.02;100929.38;5107385;28;20041;-44
2021/05/11 14:06:49;;;;;;;11.40;8.30;;;;;;;17.78;71.23;100927.50;5109623;28;20043;-44
2021/05/11 14:09:18;;;;;;;11.82;8.15;;;;;;;17.82;71.04;100922.78;5108765;28;20078;-42
2021/05/11 14:11:46;;;;;;;10.38;7.75;;;;;;;17.83;71.65;100912.31;5109498;28;20043;-49
2021/05/11 14:14:14;;;;;;;11.18;7.60;;;;;;;17.82;71.59;100914.31;5106946;28;20403;-43
2021/05/11 14:16:43;;;;;;;9.80;6.75;;;;;;;17.78;71.36;100926.69;5108909;28;20046;-47
2021/05/11 14:19:11;;;;;;;9.85;7.00;;;;;;;17.73;71.62;100926.88;5111661;28;20096;-43
2021/05/11 14:21:40;;;;;;;11.13;7.20;;;;;;;17.69;71.81;100932.38;5111329;28;20043;-45
2021/05/11 14:24:09;;;;;;;9.05;5.97;;;;;;;17.66;71.96;100941.53;5112223;28;20048;-43
2021/05/11 14:26:37;;;;;;;10.35;7.55;;;;;;;17.65;71.88;100941.88;5109023;28;20051;-54
2021/05/11 14:29:05;;;;;;;9.55;7.00;;;;;;;17.62;72.12;100940.53;5111681;28;20419;-44
2021/05/11 14:31:32;;;;;;;10.02;7.45;;;;;;;17.58;72.33;100952.88;5112053;28;20050;-43
2021/05/11 14:34:00;;;;;;;8.77;6.97;;;;;;;17.52;72.50;100955.91;5111334;28;20075;-44
2021/05/11 14:36:28;;;;;;;7.40;6.18;;;;;;;17.48;72.47;100966.22;5111733;28;20101;-45
2021/05/11 14:38:56;;;;;;;8.10;6.00;;;;;;;17.38;72.58;100977.09;5109170;28;20060;-46
2021/05/11 14:41:24;;;;;;;10.77;8.05;;;;;;;17.23;72.74;100973.69;5112498;28;20052;-45
2021/05/11 14:43:51;;;;;;;9.68;6.85;;;;;;;17.12;73.11;100974.44;5111975;28;20126;-43
2021/05/11 14:46:19;;;;;;;10.27;7.82;;;;;;;17.03;73.51;100977.28;5112527;28;20036;-45
2021/05/11 14:48:46;;;;;;;11.50;7.90;;;;;;;16.91;73.90;100977.19;5112696;28;20035;-48
2021/05/11 14:51:13;;;;;;;9.23;7.28;;;;;;;16.79;74.26;100962.97;5111471;28;20035;-48
2021/05/11 14:53:41;;;;;;;10.45;7.80;;;;;;;16.72;74.95;100963.53;5112395;28;20047;-51
2021/05/11 14:56:11;;;;;;;13.38;7.72;;;;;;;16.66;75.57;100939.50;5111867;28;20059;-50
2021/05/11 14:58:39;;;;;;;10.13;7.80;;;;;;;16.60;76.04;100932.34;5111990;28;20150;-52